Time;durP1;ratioP1;P1;durP2;ratioP2;P2;SDS_P1;SDS_P2;PMS_P1;PMS_P2;Temp;Humidity;BMP_temperature;BMP_pressure;BME280_temperature;BME280_humidity;BME280_pressure;Samples;Min_cycle;Max_cycle;Signal;HPM_P1;HPM_P2
2022/03/29 00:01:56;;;;;;;13.75;9.98;;;7.60;99.90;;;;;;5035323;28;20029;-76
2022/03/29 00:04:22;;;;;;;12.98;9.85;;;7.60;99.90;;;;;;5050092;28;20056;-76
2022/03/29 00:06:48;;;;;;;13.70;9.68;;;7.60;99.90;;;;;;5050141;28;20041;-76
2022/03/29 00:09:14;;;;;;;14.82;9.95;;;7.60;99.90;;;;;;5030887;28;20055;-76
2022/03/29 00:11:39;;;;;;;16.25;9.93;;;7.60;99.90;;;;;;5048736;28;20053;-76
2022/03/29 00:14:06;;;;;;;14.13;10.00;;;7.60;99.90;;;;;;5034586;28;20132;-76
2022/03/29 00:16:33;;;;;;;16.17;10.48;;;7.60;99.90;;;;;;5020436;28;20434;-76
2022/03/29 00:18:58;;;;;;;14.82;10.45;;;7.60;99.90;;;;;;5053364;28;20106;-76
2022/03/29 00:21:24;;;;;;;17.40;11.07;;;7.60;99.90;;;;;;5055566;28;20079;-76
2022/03/29 00:23:50;;;;;;;16.98;11.88;;;7.70;99.90;;;;;;5054741;28;20048;-76
2022/03/29 00:26:16;;;;;;;15.68;11.65;;;7.60;99.90;;;;;;5088615;28;20040;-76
2022/03/29 00:28:43;;;;;;;14.32;10.48;;;7.60;99.90;;;;;;5052540;28;20105;-76
2022/03/29 00:31:13;;;;;;;17.40;11.57;;;7.60;99.90;;;;;;5070549;28;20072;-76
2022/03/29 00:33:39;;;;;;;15.88;12.00;;;7.60;99.90;;;;;;5071801;28;20106;-77
2022/03/29 00:36:05;;;;;;;18.58;10.82;;;7.60;99.90;;;;;;5056270;28;20107;-76
2022/03/29 00:38:30;;;;;;;16.23;11.00;;;7.60;99.90;;;;;;5037295;28;20045;-75
2022/03/29 00:40:58;;;;;;;15.80;10.52;;;7.60;99.90;;;;;;5022576;28;20053;-76
2022/03/29 00:43:24;;;;;;;15.43;11.10;;;7.60;99.90;;;;;;5051866;28;20554;-76
2022/03/29 00:45:50;;;;;;;16.65;12.35;;;7.60;99.90;;;;;;5070636;28;20432;-76
2022/03/29 00:48:16;;;;;;;17.52;12.50;;;7.70;99.90;;;;;;5041283;28;20045;-76
2022/03/29 00:50:43;;;;;;;18.05;12.32;;;7.60;99.90;;;;;;5054297;28;20044;-77
2022/03/29 00:53:10;;;;;;;17.60;11.68;;;7.60;99.90;;;;;;5036902;28;20052;-76
2022/03/29 00:55:36;;;;;;;18.23;12.23;;;7.70;99.90;;;;;;5045454;28;20044;-76
2022/03/29 00:58:03;;;;;;;14.20;10.70;;;7.60;99.90;;;;;;5054054;28;20049;-76
2022/03/29 01:00:33;;;;;;;16.60;11.35;;;7.70;99.90;;;;;;5054629;28;20055;-76
2022/03/29 01:03:03;;;;;;;15.13;11.38;;;7.50;99.90;;;;;;5053994;28;20032;-76
2022/03/29 01:05:29;;;;;;;19.25;11.73;;;7.60;99.90;;;;;;5072171;28;20052;-76
2022/03/29 01:07:58;;;;;;;16.55;12.00;;;7.70;99.90;;;;;;5053837;28;20455;-76
2022/03/29 01:10:25;;;;;;;15.45;11.30;;;7.50;99.90;;;;;;5054657;28;20063;-76
2022/03/29 01:12:51;;;;;;;16.77;11.70;;;7.50;99.90;;;;;;5053102;28;20048;-76
2022/03/29 01:15:19;;;;;;;17.63;11.48;;;7.50;99.90;;;;;;5055229;28;20049;-76
2022/03/29 01:17:46;;;;;;;21.08;12.38;;;7.50;99.90;;;;;;5052850;28;20083;-77
2022/03/29 01:20:27;;;;;;;18.05;12.35;;;7.50;99.90;;;;;;5053756;28;20143;-76
2022/03/29 01:22:55;;;;;;;15.88;11.98;;;7.50;99.90;;;;;;5087813;28;20045;-76
2022/03/29 01:25:23;;;;;;;21.95;11.93;;;7.50;99.90;;;;;;5014843;28;20826;-76
2022/03/29 01:27:50;;;;;;;16.73;12.07;;;7.50;99.90;;;;;;5085523;28;20040;-76
2022/03/29 01:30:17;;;;;;;19.38;12.20;;;7.50;99.90;;;;;;5087318;28;20103;-76
2022/03/29 01:32:50;;;;;;;19.75;12.85;;;7.50;99.90;;;;;;5037470;28;20072;-77
2022/03/29 01:35:19;;;;;;;25.85;14.68;;;7.60;99.90;;;;;;5055237;28;20098;-76
2022/03/29 01:37:45;;;;;;;21.77;13.95;;;7.60;99.90;;;;;;5051448;28;20061;-76
2022/03/29 01:40:15;;;;;;;19.67;13.98;;;7.60;99.90;;;;;;5054422;28;20260;-76
2022/03/29 01:42:46;;;;;;;20.15;13.77;;;7.50;99.90;;;;;;5036480;28;20516;-76
2022/03/29 01:45:12;;;;;;;20.23;13.18;;;7.50;99.90;;;;;;5088250;28;20053;-76
2022/03/29 01:47:38;;;;;;;20.30;13.82;;;7.50;99.90;;;;;;5022625;28;20055;-76
2022/03/29 01:50:04;;;;;;;19.15;13.45;;;7.50;99.90;;;;;;5046311;28;20033;-76
2022/03/29 01:52:38;;;;;;;18.73;13.25;;;7.50;99.90;;;;;;5068731;28;20122;-76
2022/03/29 01:55:04;;;;;;;19.45;13.98;;;7.50;99.90;;;;;;5019929;28;20049;-76
2022/03/29 01:57:30;;;;;;;19.50;12.60;;;7.50;99.90;;;;;;5020984;28;20052;-76
2022/03/29 02:02:39;;;;;;;18.13;12.02;;;7.50;99.90;;;;;;5011641;28;20045;-76
2022/03/29 02:05:05;;;;;;;19.02;11.60;;;7.90;99.90;;;;;;5035559;28;20103;-76
2022/03/29 02:07:31;;;;;;;17.52;11.77;;;7.40;99.90;;;;;;5036630;28;20045;-76
2022/03/29 02:09:57;;;;;;;17.13;11.63;;;7.40;99.90;;;;;;5018956;28;20036;-76
2022/03/29 02:12:23;;;;;;;18.75;12.48;;;7.40;99.90;;;;;;5004737;28;20098;-76
2022/03/29 02:14:48;;;;;;;19.40;12.50;;;7.40;99.90;;;;;;5035572;28;20038;-77
2022/03/29 02:17:15;;;;;;;21.58;13.10;;;7.40;99.90;;;;;;5054280;28;20046;-76
2022/03/29 02:19:40;;;;;;;18.55;12.77;;;7.40;99.90;;;;;;5035703;28;20053;-76
2022/03/29 02:22:06;;;;;;;18.17;12.70;;;7.40;99.90;;;;;;5019370;28;20110;-76
2022/03/29 02:24:32;;;;;;;19.65;13.07;;;7.40;99.90;;;;;;5053309;28;20102;-77
2022/03/29 02:26:57;;;;;;;20.63;12.60;;;7.60;99.90;;;;;;5021125;28;20072;-76
2022/03/29 02:29:23;;;;;;;18.70;12.80;;;7.40;99.90;;;;;;5020229;28;20047;-76
2022/03/29 02:31:49;;;;;;;20.02;12.82;;;7.40;99.90;;;;;;5051378;28;20421;-76
2022/03/29 02:34:15;;;;;;;19.00;12.02;;;7.40;99.90;;;;;;5068841;28;20491;-76
2022/03/29 02:36:40;;;;;;;17.40;11.80;;;7.40;99.90;;;;;;5035867;28;20494;-76
2022/03/29 02:39:06;;;;;;;19.70;12.55;;;7.40;99.90;;;;;;5084048;28;20485;-76
2022/03/29 02:41:32;;;;;;;19.83;12.20;;;7.30;99.90;;;;;;5020838;28;20045;-77
2022/03/29 02:43:57;;;;;;;17.50;12.23;;;7.30;99.90;;;;;;5054908;28;20041;-76
2022/03/29 02:46:23;;;;;;;20.10;12.85;;;7.30;99.90;;;;;;5022283;28;20131;-76
2022/03/29 02:48:49;;;;;;;18.45;12.75;;;7.30;99.90;;;;;;5035941;28;20044;-77
2022/03/29 02:51:17;;;;;;;19.05;12.15;;;7.30;99.90;;;;;;5023111;28;20044;-76
2022/03/29 02:53:43;;;;;;;18.88;12.50;;;7.50;99.90;;;;;;5020529;28;20083;-76
2022/03/29 02:56:09;;;;;;;19.80;12.65;;;7.40;99.90;;;;;;5036068;28;21868;-76
2022/03/29 02:58:34;;;;;;;19.08;12.70;;;7.20;99.90;;;;;;5010349;28;20044;-76
2022/03/29 03:01:00;;;;;;;18.40;12.27;;;7.20;99.90;;;;;;5052488;28;20128;-76
2022/03/29 03:03:26;;;;;;;20.88;12.65;;;7.20;99.90;;;;;;5053995;28;20120;-76
2022/03/29 03:05:52;;;;;;;21.67;13.57;;;7.20;99.90;;;;;;5035149;28;20056;-77
2022/03/29 03:08:17;;;;;;;20.20;13.15;;;7.20;99.90;;;;;;5039141;28;20045;-76
2022/03/29 03:10:43;;;;;;;20.83;13.35;;;7.60;99.90;;;;;;5011534;28;20834;-77
2022/03/29 03:13:11;;;;;;;19.98;12.90;;;7.10;99.90;;;;;;5054306;28;20399;-76
2022/03/29 03:15:37;;;;;;;23.23;13.07;;;7.20;99.90;;;;;;5084419;28;20041;-76
2022/03/29 03:18:03;;;;;;;23.63;13.50;;;7.10;99.90;;;;;;5049929;28;20056;-77
2022/03/29 03:20:29;;;;;;;19.25;12.98;;;7.10;99.90;;;;;;5034781;28;20127;-77
2022/03/29 03:22:55;;;;;;;21.50;14.25;;;7.10;99.90;;;;;;5051018;28;20041;-76
2022/03/29 03:25:21;;;;;;;19.80;14.02;;;7.10;99.90;;;;;;5034738;28;20065;-76
2022/03/29 03:27:47;;;;;;;19.88;13.25;;;7.10;99.90;;;;;;5020868;28;20183;-77
2022/03/29 03:30:16;;;;;;;19.42;13.43;;;7.90;99.90;;;;;;5036450;28;20072;-76
2022/03/29 03:32:43;;;;;;;18.67;13.85;;;7.10;99.90;;;;;;5084623;28;20556;-76
2022/03/29 03:35:10;;;;;;;17.13;13.15;;;7.10;99.90;;;;;;5050983;28;20114;-76
2022/03/29 03:37:36;;;;;;;21.13;13.98;;;7.10;99.90;;;;;;5034211;28;20067;-76
2022/03/29 03:40:04;;;;;;;19.38;14.18;;;7.10;99.90;;;;;;5034421;28;20049;-76
2022/03/29 03:42:29;;;;;;;22.05;13.85;;;7.20;99.90;;;;;;5085635;28;20560;-76
2022/03/29 03:44:57;;;;;;;20.85;14.05;;;7.10;99.90;;;;;;5036240;28;20080;-76
2022/03/29 03:47:23;;;;;;;22.48;14.00;;;7.10;99.90;;;;;;5021976;28;20041;-76
2022/03/29 03:49:48;;;;;;;20.58;13.27;;;7.20;99.90;;;;;;5036812;28;20056;-76
2022/03/29 03:52:14;;;;;;;23.70;13.38;;;7.10;99.90;;;;;;5003461;28;20040;-76
2022/03/29 03:54:40;;;;;;;20.08;13.70;;;7.10;99.90;;;;;;5040428;28;20409;-76
2022/03/29 03:57:06;;;;;;;19.33;13.13;;;7.10;99.90;;;;;;5038072;28;20048;-77
2022/03/29 03:59:32;;;;;;;22.95;14.48;;;7.10;99.90;;;;;;5038582;28;20084;-76
2022/03/29 04:01:58;;;;;;;20.95;13.15;;;7.10;99.90;;;;;;5041400;28;20044;-77
2022/03/29 04:04:24;;;;;;;18.38;13.48;;;7.10;99.90;;;;;;5042217;28;20387;-76
2022/03/29 04:06:51;;;;;;;19.67;13.00;;;7.10;99.90;;;;;;5037123;28;20057;-76
2022/03/29 04:09:17;;;;;;;19.58;13.27;;;7.10;99.90;;;;;;5070593;28;20090;-76
2022/03/29 04:11:43;;;;;;;19.92;12.82;;;7.00;99.90;;;;;;5054648;28;20049;-76
2022/03/29 04:14:09;;;;;;;20.30;13.10;;;7.40;99.90;;;;;;5013859;28;20432;-77
2022/03/29 04:16:35;;;;;;;22.10;14.18;;;7.10;99.90;;;;;;5057108;28;20045;-76
2022/03/29 04:19:01;;;;;;;21.00;12.68;;;7.10;99.90;;;;;;5022020;28;20612;-76
2022/03/29 04:21:28;;;;;;;20.65;13.75;;;7.10;99.90;;;;;;5008287;28;20491;-76
2022/03/29 04:23:53;;;;;;;18.17;12.43;;;7.10;99.90;;;;;;5055254;28;20080;-77
2022/03/29 04:26:19;;;;;;;19.60;13.30;;;7.10;99.90;;;;;;5039560;28;20098;-76
2022/03/29 04:28:45;;;;;;;19.27;13.35;;;7.00;99.90;;;;;;5022875;28;20049;-76
2022/03/29 04:31:11;;;;;;;19.83;12.98;;;7.00;99.90;;;;;;5039290;28;20474;-76
2022/03/29 04:33:38;;;;;;;22.38;14.43;;;7.00;99.90;;;;;;5055659;28;20098;-76
2022/03/29 04:36:04;;;;;;;22.10;14.20;;;7.00;99.90;;;;;;5054951;28;20040;-76
2022/03/29 04:38:30;;;;;;;24.00;15.50;;;7.00;99.90;;;;;;5037599;28;20144;-77
2022/03/29 04:40:56;;;;;;;24.95;15.48;;;7.00;99.90;;;;;;5022668;28;20045;-77
2022/03/29 04:43:22;;;;;;;22.08;14.32;;;7.00;99.90;;;;;;5038287;28;20052;-76
2022/03/29 04:45:48;;;;;;;25.10;15.43;;;7.00;99.90;;;;;;5054791;28;20044;-76
2022/03/29 04:48:14;;;;;;;26.05;15.25;;;7.00;99.90;;;;;;5022298;28;20575;-76
2022/03/29 04:50:40;;;;;;;26.95;16.25;;;7.20;99.90;;;;;;5039658;28;20041;-76
2022/03/29 04:53:09;;;;;;;24.98;15.60;;;7.00;99.90;;;;;;5070505;28;20102;-76
2022/03/29 04:55:35;;;;;;;23.67;15.73;;;7.00;99.90;;;;;;5040865;28;20053;-77
2022/03/29 04:58:01;;;;;;;24.63;16.73;;;7.00;99.90;;;;;;5035224;28;20204;-77
2022/03/29 05:00:27;;;;;;;26.83;15.35;;;7.00;99.90;;;;;;5055137;28;20063;-77
2022/03/29 05:02:53;;;;;;;23.75;16.15;;;7.00;99.90;;;;;;5036606;28;20052;-77
2022/03/29 05:05:19;;;;;;;25.75;15.85;;;7.00;99.90;;;;;;5052933;28;20036;-77
2022/03/29 05:07:45;;;;;;;22.35;15.70;;;7.00;99.90;;;;;;5052152;28;20060;-77
2022/03/29 05:10:12;;;;;;;27.38;16.58;;;7.00;99.90;;;;;;5037893;28;20045;-77
2022/03/29 05:12:39;;;;;;;24.42;16.25;;;7.00;99.90;;;;;;5035406;28;20128;-76
2022/03/29 05:15:06;;;;;;;27.90;16.20;;;7.10;99.90;;;;;;5035681;28;20049;-76
2022/03/29 05:17:33;;;;;;;25.73;16.40;;;7.00;99.90;;;;;;5038464;28;20136;-76
2022/03/29 05:19:59;;;;;;;25.92;17.05;;;7.00;99.90;;;;;;5052595;28;20045;-77
2022/03/29 05:22:25;;;;;;;25.08;15.90;;;7.00;99.90;;;;;;5022753;28;20456;-76
2022/03/29 05:24:50;;;;;;;24.75;15.88;;;7.00;99.90;;;;;;5068670;28;20045;-76
2022/03/29 05:27:16;;;;;;;29.48;16.50;;;7.00;99.90;;;;;;5020475;28;20092;-76
2022/03/29 05:29:42;;;;;;;28.90;17.75;;;7.00;99.90;;;;;;5054558;28;20044;-76
2022/03/29 05:32:08;;;;;;;28.98;16.75;;;7.00;99.90;;;;;;5006109;28;20163;-76
2022/03/29 05:34:33;;;;;;;25.50;16.27;;;7.00;99.90;;;;;;5022571;28;20045;-76
2022/03/29 05:36:59;;;;;;;27.33;16.42;;;7.00;99.90;;;;;;5037507;28;20040;-77
2022/03/29 05:39:25;;;;;;;25.83;16.40;;;7.00;99.90;;;;;;5051956;28;20045;-77
2022/03/29 05:41:51;;;;;;;27.15;15.77;;;7.00;99.90;;;;;;5020278;28;20140;-76
2022/03/29 05:44:16;;;;;;;28.83;16.80;;;7.00;99.90;;;;;;5037300;28;20113;-76
2022/03/29 05:49:27;;;;;;;31.27;17.08;;;7.00;99.90;;;;;;5053398;28;20041;-76
2022/03/29 05:51:53;;;;;;;29.30;17.30;;;7.00;99.90;;;;;;5051846;28;20461;-77
2022/03/29 05:54:19;;;;;;;25.77;15.70;;;7.30;99.90;;;;;;5036593;28;20047;-76
2022/03/29 05:56:45;;;;;;;27.15;16.73;;;7.00;99.90;;;;;;5068187;28;20053;-76
2022/03/29 05:59:11;;;;;;;28.10;16.77;;;6.90;99.90;;;;;;5056040;28;20037;-76
2022/03/29 06:01:39;;;;;;;27.13;16.65;;;7.00;99.90;;;;;;5035204;28;20132;-77
2022/03/29 06:04:07;;;;;;;29.85;17.50;;;6.90;99.90;;;;;;5069512;28;20048;-76
2022/03/29 06:06:34;;;;;;;30.17;16.88;;;6.90;99.90;;;;;;5066938;28;20580;-76
2022/03/29 06:09:00;;;;;;;27.75;17.83;;;6.90;99.90;;;;;;5028775;28;20076;-78
2022/03/29 06:11:26;;;;;;;30.17;16.92;;;6.90;99.90;;;;;;5034671;28;20143;-77
2022/03/29 06:13:52;;;;;;;31.08;17.45;;;6.90;99.90;;;;;;5052717;28;20497;-78
2022/03/29 06:16:17;;;;;;;29.33;17.83;;;7.20;99.90;;;;;;5034597;28;20078;-77
2022/03/29 06:18:43;;;;;;;29.77;17.85;;;6.90;99.90;;;;;;5005090;28;20441;-77
2022/03/29 06:21:09;;;;;;;27.55;17.55;;;6.90;99.90;;;;;;5021698;28;20057;-77
2022/03/29 06:23:35;;;;;;;30.13;16.80;;;6.90;99.90;;;;;;5037689;28;20076;-77
2022/03/29 06:26:01;;;;;;;29.33;16.75;;;6.90;99.90;;;;;;5035677;28;20088;-77
2022/03/29 06:28:27;;;;;;;29.65;17.40;;;6.90;99.90;;;;;;5051359;28;20482;-76
2022/03/29 06:30:53;;;;;;;28.00;17.48;;;6.90;99.90;;;;;;5019602;28;20037;-77
2022/03/29 06:33:20;;;;;;;28.30;18.13;;;6.90;99.90;;;;;;5023830;28;20131;-77
2022/03/29 06:35:45;;;;;;;24.75;16.38;;;7.60;99.90;;;;;;5070115;28;20152;-76
2022/03/29 06:38:11;;;;;;;26.48;16.70;;;7.80;99.90;;;;;;5036196;28;20541;-77
2022/03/29 06:40:37;;;;;;;27.98;16.75;;;7.00;99.90;;;;;;5006192;28;20451;-77
2022/03/29 06:43:03;;;;;;;30.23;18.42;;;7.70;99.90;;;;;;5037210;28;20064;-78
2022/03/29 06:45:29;;;;;;;28.63;17.23;;;7.10;99.90;;;;;;5005286;28;20044;-76
2022/03/29 06:47:57;;;;;;;27.08;17.58;;;7.10;99.90;;;;;;5037667;28;20044;-77
2022/03/29 06:50:23;;;;;;;30.45;17.92;;;7.20;99.90;;;;;;5084671;28;20170;-77
2022/03/29 06:52:49;;;;;;;25.75;17.58;;;7.30;99.90;;;;;;5036391;28;20477;-78
2022/03/29 06:55:18;;;;;;;32.22;17.55;;;7.40;99.90;;;;;;5019706;28;20539;-77
2022/03/29 06:57:43;;;;;;;32.38;18.15;;;7.40;99.90;;;;;;5054850;28;20098;-77
2022/03/29 07:00:10;;;;;;;30.10;18.40;;;7.50;99.90;;;;;;5085345;28;20848;-80
2022/03/29 07:02:36;;;;;;;33.42;18.50;;;7.50;99.90;;;;;;5052207;28;20072;-77
2022/03/29 07:05:03;;;;;;;30.75;17.63;;;7.60;99.90;;;;;;5050754;28;20123;-77
2022/03/29 07:07:29;;;;;;;28.90;18.42;;;7.60;99.90;;;;;;5084690;28;20055;-77
2022/03/29 07:12:57;;;;;;;27.73;17.15;;;7.80;99.90;;;;;;5050693;28;20049;-77
2022/03/29 07:15:23;;;;;;;31.83;17.50;;;7.90;99.90;;;;;;5086254;28;20043;-76
2022/03/29 07:17:49;;;;;;;26.23;16.55;;;7.90;99.90;;;;;;5021396;28;20520;-76
2022/03/29 07:20:16;;;;;;;28.73;16.85;;;8.00;99.90;;;;;;5033916;28;20036;-76
2022/03/29 07:22:43;;;;;;;26.77;16.75;;;8.00;99.90;;;;;;5053491;28;20040;-76
2022/03/29 07:25:09;;;;;;;23.55;17.05;;;8.10;99.90;;;;;;5037220;28;20482;-76
2022/03/29 07:27:35;;;;;;;27.25;16.20;;;8.20;99.90;;;;;;5055997;28;20449;-76
2022/03/29 07:30:03;;;;;;;25.05;16.35;;;8.30;99.90;;;;;;5058573;28;20168;-77
2022/03/29 07:32:29;;;;;;;22.80;15.38;;;8.30;99.90;;;;;;5056000;28;20670;-77
2022/03/29 07:34:56;;;;;;;23.38;14.63;;;8.40;99.90;;;;;;5027427;28;20127;-77
2022/03/29 07:37:22;;;;;;;29.63;15.30;;;8.40;99.90;;;;;;5056945;28;20411;-77
2022/03/29 07:39:53;;;;;;;26.70;16.00;;;8.50;99.90;;;;;;5057476;28;20428;-77
2022/03/29 07:42:21;;;;;;;21.92;14.10;;;8.50;99.90;;;;;;5058026;28;20049;-78
2022/03/29 07:44:49;;;;;;;24.10;14.98;;;8.60;99.90;;;;;;5058551;28;20452;-76
2022/03/29 07:47:19;;;;;;;21.02;14.45;;;8.60;99.90;;;;;;5009635;28;20088;-76
2022/03/29 07:49:46;;;;;;;26.30;14.75;;;8.70;99.90;;;;;;5040089;28;20048;-78
2022/03/29 07:52:14;;;;;;;30.30;16.10;;;8.70;99.90;;;;;;5090452;28;20160;-77
2022/03/29 07:54:39;;;;;;;26.10;14.88;;;8.70;99.90;;;;;;5040739;28;20041;-79
2022/03/29 07:57:08;;;;;;;24.58;14.65;;;8.90;99.90;;;;;;5090948;28;20053;-78
2022/03/29 07:59:37;;;;;;;22.27;14.48;;;8.70;99.90;;;;;;5041112;28;20056;-76
2022/03/29 08:02:04;;;;;;;23.63;14.10;;;8.70;99.90;;;;;;5089236;28;20123;-76
2022/03/29 08:04:30;;;;;;;24.42;14.20;;;8.70;99.90;;;;;;5023547;28;20159;-82
2022/03/29 08:06:56;;;;;;;26.58;15.30;;;8.80;99.90;;;;;;5022157;28;20120;-76
2022/03/29 08:09:22;;;;;;;23.30;13.90;;;8.80;99.90;;;;;;5036280;28;20064;-76
2022/03/29 08:11:48;;;;;;;23.75;14.15;;;8.80;99.90;;;;;;5054717;28;20052;-76
2022/03/29 08:14:14;;;;;;;24.42;14.20;;;8.90;99.90;;;;;;5040963;28;20058;-76
2022/03/29 08:16:41;;;;;;;22.92;14.35;;;8.80;99.90;;;;;;5039141;28;20049;-76
2022/03/29 08:19:07;;;;;;;27.30;13.18;;;8.80;99.90;;;;;;5088243;28;20044;-76
2022/03/29 08:21:51;;;;;;;27.08;14.07;;;8.80;99.90;;;;;;5039040;28;20048;-76
2022/03/29 08:24:23;;;;;;;23.23;14.88;;;8.90;99.90;;;;;;5013367;28;20071;-76
2022/03/29 08:26:51;;;;;;;21.98;13.93;;;8.80;99.90;;;;;;5092837;28;20041;-76
2022/03/29 08:29:18;;;;;;;23.15;13.90;;;8.90;99.90;;;;;;5041105;28;20084;-77
2022/03/29 08:31:47;;;;;;;24.55;14.10;;;8.90;99.90;;;;;;5072606;28;20141;-76
2022/03/29 08:34:13;;;;;;;23.98;14.57;;;8.80;99.90;;;;;;5055192;28;20103;-77
2022/03/29 08:36:39;;;;;;;27.33;13.77;;;8.90;99.90;;;;;;5054832;28;20048;-76
2022/03/29 08:39:09;;;;;;;22.08;13.55;;;8.90;99.90;;;;;;5057250;28;20565;-76
2022/03/29 08:41:46;;;;;;;24.38;14.93;;;8.90;99.90;;;;;;5038799;28;20077;-79
2022/03/29 08:44:11;;;;;;;26.58;13.90;;;8.90;99.90;;;;;;5073540;28;20056;-80
2022/03/29 08:46:41;;;;;;;28.52;14.63;;;8.90;99.90;;;;;;5056908;28;20052;-79
2022/03/29 08:49:08;;;;;;;25.55;14.45;;;8.90;99.90;;;;;;5056188;28;20501;-80
2022/03/29 08:51:36;;;;;;;41.78;16.25;;;9.20;99.90;;;;;;5054311;28;20045;-79
2022/03/29 08:54:02;;;;;;;27.33;14.32;;;9.20;99.90;;;;;;5055549;28;20547;-80
2022/03/29 08:56:28;;;;;;;23.55;14.35;;;9.00;99.90;;;;;;5023472;28;20053;-77
2022/03/29 08:58:53;;;;;;;24.38;14.48;;;9.10;99.90;;;;;;5039315;28;20060;-81
2022/03/29 09:01:20;;;;;;;22.85;14.43;;;9.20;99.90;;;;;;5022469;28;20040;-79
2022/03/29 09:03:47;;;;;;;21.20;12.95;;;9.30;99.90;;;;;;5054920;28;20054;-79
2022/03/29 09:06:13;;;;;;;21.58;13.82;;;9.60;99.90;;;;;;5027006;28;20048;-79
2022/03/29 09:08:46;;;;;;;22.08;13.63;;;9.60;99.90;;;;;;5039123;28;20057;-78
2022/03/29 09:11:13;;;;;;;21.65;13.70;;;9.70;99.90;;;;;;5023607;28;20071;-78
2022/03/29 09:13:40;;;;;;;21.48;13.23;;;9.70;99.90;;;;;;5039552;28;20060;-79
2022/03/29 09:16:10;;;;;;;26.30;13.63;;;9.90;99.90;;;;;;5090325;28;20047;-79
2022/03/29 09:18:37;;;;;;;23.05;13.88;;;10.10;99.90;;;;;;5069667;28;20072;-79
2022/03/29 09:21:17;;;;;;;20.98;12.95;;;10.00;99.90;;;;;;5038250;28;20045;-78
2022/03/29 09:24:07;;;;;;;19.45;14.05;;;10.10;99.90;;;;;;5036690;28;20044;-79
2022/03/29 09:26:36;;;;;;;23.08;13.90;;;10.20;99.90;;;;;;5056693;28;20041;-79
2022/03/29 09:29:03;;;;;;;23.95;13.93;;;10.30;99.90;;;;;;5055600;28;20052;-79
2022/03/29 09:31:29;;;;;;;24.95;12.80;;;10.30;99.90;;;;;;5053557;28;20041;-79
2022/03/29 09:34:17;;;;;;;21.40;12.82;;;10.40;99.90;;;;;;5023085;28;20048;-79
2022/03/29 09:36:48;;;;;;;22.70;12.85;;;10.40;99.90;;;;;;5052397;28;20044;-79
2022/03/29 09:39:40;;;;;;;25.25;11.30;;;10.40;99.90;;;;;;5052495;28;20079;-79
2022/03/29 09:42:13;;;;;;;20.80;11.75;;;10.40;99.90;;;;;;5054390;28;20045;-79
2022/03/29 09:44:42;;;;;;;22.02;11.65;;;10.50;99.90;;;;;;5071635;28;20053;-79
2022/03/29 09:47:10;;;;;;;20.40;11.32;;;10.50;99.90;;;;;;5087708;28;20040;-79
2022/03/29 09:49:56;;;;;;;20.85;10.60;;;10.60;99.90;;;;;;5087620;28;20436;-79
2022/03/29 09:52:26;;;;;;;22.38;10.50;;;10.60;99.90;;;;;;5022014;28;20127;-79
2022/03/29 09:55:15;;;;;;;23.13;11.07;;;10.70;99.90;;;;;;5024236;28;20079;-80
2022/03/29 09:57:53;;;;;;;21.13;10.80;;;10.80;99.90;;;;;;5085466;28;20075;-79
2022/03/29 10:00:25;;;;;;;20.17;11.07;;;10.90;99.90;;;;;;5037461;28;20049;-77
2022/03/29 10:02:51;;;;;;;18.38;10.55;;;10.90;99.90;;;;;;5085912;28;20889;-77
2022/03/29 10:05:19;;;;;;;21.67;10.23;;;11.00;99.90;;;;;;5054557;28;20045;-76
2022/03/29 10:10:44;;;;;;;16.55;9.85;;;11.10;99.90;;;;;;5022904;28;20456;-76
2022/03/29 10:13:10;;;;;;;18.23;10.07;;;11.20;99.90;;;;;;5070040;28;20131;-76
2022/03/29 10:15:39;;;;;;;21.08;10.63;;;11.30;99.90;;;;;;5034638;28;20048;-76
2022/03/29 10:18:05;;;;;;;19.77;10.00;;;11.40;99.90;;;;;;5035684;28;20072;-77
2022/03/29 10:20:33;;;;;;;18.60;10.30;;;11.50;99.90;;;;;;5036436;28;20056;-78
2022/03/29 10:22:59;;;;;;;17.42;10.48;;;11.60;99.90;;;;;;5009314;28;20569;-77
2022/03/29 10:25:26;;;;;;;21.27;10.57;;;11.60;99.90;;;;;;5067273;28;20040;-78
2022/03/29 10:27:54;;;;;;;17.55;10.50;;;11.70;99.90;;;;;;5034108;28;20186;-77
2022/03/29 10:30:34;;;;;;;20.85;10.77;;;11.80;99.90;;;;;;5068811;28;20049;-77
2022/03/29 10:33:19;;;;;;;20.42;10.88;;;11.90;99.90;;;;;;5034327;28;20045;-78
2022/03/29 10:36:24;;;;;;;19.35;10.82;;;12.00;99.90;;;;;;5053449;28;20139;-77
2022/03/29 10:38:51;;;;;;;21.00;10.30;;;12.20;99.90;;;;;;5008430;28;20054;-78
2022/03/29 10:41:26;;;;;;;15.68;9.85;;;12.50;99.90;;;;;;5010503;28;20073;-76
2022/03/29 10:43:55;;;;;;;18.45;9.77;;;12.70;99.90;;;;;;5042021;28;20087;-76
2022/03/29 10:46:37;;;;;;;16.58;9.50;;;12.80;99.90;;;;;;5056238;28;20179;-77
2022/03/29 10:49:32;;;;;;;16.55;8.60;;;12.80;99.90;;;;;;5040253;28;20041;-76
2022/03/29 10:52:04;;;;;;;15.90;9.25;;;12.80;99.90;;;;;;5054654;28;20052;-77
2022/03/29 10:54:33;;;;;;;15.43;9.30;;;13.10;99.90;;;;;;5019071;28;20482;-77
2022/03/29 10:57:07;;;;;;;14.10;8.05;;;13.30;99.90;;;;;;5068722;28;20127;-77
2022/03/29 10:59:35;;;;;;;18.48;9.02;;;13.50;99.90;;;;;;5035815;28;20052;-77
2022/03/29 11:02:07;;;;;;;15.32;8.00;;;13.90;99.90;;;;;;5051955;28;20037;-81
2022/03/29 11:04:33;;;;;;;18.80;9.18;;;14.20;99.90;;;;;;5053307;28;20041;-81
2022/03/29 11:07:05;;;;;;;14.02;8.48;;;14.60;99.90;;;;;;5054291;28;20056;-81
2022/03/29 11:09:32;;;;;;;16.23;8.18;;;15.10;99.90;;;;;;5068701;28;20490;-80
2022/03/29 11:11:59;;;;;;;17.75;8.27;;;15.40;99.90;;;;;;5054844;28;20078;-86
2022/03/29 11:14:31;;;;;;;16.30;8.02;;;15.70;99.90;;;;;;5052837;28;20040;-82
2022/03/29 11:17:09;;;;;;;14.88;8.43;;;15.80;99.90;;;;;;5071190;28;20383;-80
2022/03/29 11:19:44;;;;;;;15.30;8.23;;;15.80;99.90;;;;;;5035322;28;20053;-81
2022/03/29 11:22:29;;;;;;;13.70;8.15;;;15.80;99.90;;;;;;5053679;28;20049;-81
2022/03/29 11:25:05;;;;;;;12.77;7.78;;;15.70;99.90;;;;;;5086115;28;20415;-77
2022/03/29 11:27:33;;;;;;;17.00;8.25;;;15.60;99.90;;;;;;5051902;28;20045;-77
2022/03/29 11:30:01;;;;;;;13.57;7.28;;;15.40;99.90;;;;;;5035949;28;20049;-77
2022/03/29 11:32:27;;;;;;;16.77;7.57;;;15.30;99.90;;;;;;5052981;28;20399;-78
2022/03/29 11:34:59;;;;;;;12.32;6.72;;;15.30;99.90;;;;;;5037963;28;20055;-77
2022/03/29 11:37:27;;;;;;;13.85;6.60;;;15.20;99.90;;;;;;5054823;28;20053;-77
2022/03/29 11:39:53;;;;;;;14.73;6.90;;;15.10;99.90;;;;;;5068973;28;20125;-77
2022/03/29 11:42:19;;;;;;;11.75;6.55;;;14.90;99.90;;;;;;5070059;28;20439;-77
2022/03/29 11:44:49;;;;;;;13.35;7.03;;;14.80;99.90;;;;;;5087078;28;20076;-79
2022/03/29 11:47:15;;;;;;;14.30;6.68;;;14.70;99.90;;;;;;5038515;28;20486;-77
2022/03/29 11:49:43;;;;;;;12.82;6.43;;;14.60;99.90;;;;;;5052740;28;20052;-77
2022/03/29 11:52:19;;;;;;;13.52;6.32;;;14.50;99.90;;;;;;5037572;28;20702;-77
2022/03/29 11:54:46;;;;;;;11.73;6.22;;;14.40;99.90;;;;;;5054650;28;20049;-77
2022/03/29 11:57:23;;;;;;;14.25;6.35;;;14.30;99.90;;;;;;5084674;28;20056;-77
2022/03/29 11:59:50;;;;;;;13.65;6.20;;;14.20;99.90;;;;;;5054070;28;20056;-77
2022/03/29 12:02:18;;;;;;;10.77;6.07;;;14.10;99.90;;;;;;5035452;28;20041;-77
2022/03/29 12:04:47;;;;;;;13.43;6.20;;;14.10;99.90;;;;;;5020874;28;20554;-77
2022/03/29 12:07:13;;;;;;;13.70;6.50;;;14.00;99.90;;;;;;5053204;28;20048;-77
2022/03/29 12:09:48;;;;;;;13.48;6.43;;;14.00;99.90;;;;;;5491369;22;20116;-78
2022/03/29 12:12:14;;;;;;;13.98;6.90;;;13.90;99.90;;;;;;4985727;28;20049;-78
2022/03/29 12:14:40;;;;;;;14.38;6.90;;;13.90;99.90;;;;;;5006573;28;20601;-77
2022/03/29 12:17:08;;;;;;;14.52;6.78;;;13.90;99.90;;;;;;4975396;28;20121;-78
2022/03/29 12:19:39;;;;;;;12.82;6.28;;;13.80;99.90;;;;;;5008657;28;20052;-78
2022/03/29 12:22:11;;;;;;;13.68;6.32;;;13.70;99.90;;;;;;4991975;28;20037;-77
2022/03/29 12:24:42;;;;;;;14.15;7.22;;;13.60;99.90;;;;;;5009451;28;20050;-77
2022/03/29 12:27:19;;;;;;;15.43;7.15;;;13.50;99.90;;;;;;5008084;28;20689;-77
2022/03/29 12:29:52;;;;;;;15.00;6.72;;;13.50;99.90;;;;;;5007953;28;20046;-78
2022/03/29 12:32:19;;;;;;;13.75;6.70;;;13.50;99.90;;;;;;5004850;28;20082;-77
2022/03/29 12:34:53;;;;;;;16.80;7.35;;;13.50;99.90;;;;;;4993273;28;20099;-78
2022/03/29 12:37:19;;;;;;;13.98;7.55;;;13.50;99.90;;;;;;4992390;28;20053;-78
2022/03/29 12:39:45;;;;;;;11.60;6.75;;;13.50;99.90;;;;;;4975755;28;20046;-77
2022/03/29 12:42:13;;;;;;;13.15;7.40;;;13.40;99.90;;;;;;5010928;28;20496;-77
2022/03/29 12:44:48;;;;;;;16.35;7.60;;;13.40;99.90;;;;;;5002485;28;20038;-78
2022/03/29 12:47:16;;;;;;;15.20;8.05;;;13.40;99.90;;;;;;5006909;28;20049;-77
2022/03/29 12:49:43;;;;;;;12.20;6.82;;;13.30;99.90;;;;;;5003369;28;20046;-77
2022/03/29 12:52:11;;;;;;;16.95;7.70;;;13.40;99.90;;;;;;4984763;28;20120;-78